Helsinki — V2PM — position and weather

sailwx.info

Track history (hours):
 
Tides and Currents Weather Stations Pressure Air Temp Water Temp Dewpoint Dewpoint Depression Visibility Wind Speed Wind Dir Waves Ship Positions

Helsinki

Last reported at 2017-Oct-18 04:32 UTC. Time now 2017-Oct-19 18:40 UTC.
Position N 37°20' E 005°40'.

MMSI: 304010778.

Date/timePositionNaut miles runAvg speedWind from/ knotsBaromVisibWave heightAir tempDewpointWater temp
2017-Oct-18 04:32N 37°20' E 005°40'410.1
2017-Oct-18 04:09N 37°20' E 005°44'210.3
2017-Oct-18 03:58N 37°20' E 005°47'9310.3
2017-Oct-17 18:52N 37°32' E 007°43'410.9
2017-Oct-17 18:30N 37°32' E 007°48'20710.0
2017-Oct-16 21:53N 37°12' E 012°08'710.1
2017-Oct-16 21:13N 37°10' E 012°16'1010.0
2017-Oct-16 20:14N 37°08' E 012°28'310.0
2017-Oct-16 19:54N 37°06' E 012°32'4 9.8
2017-Oct-16 19:30N 37°05' E 012°36'5 9.8
2017-Oct-16 19:00N 37°03' E 012°42'5 9.9
2017-Oct-16 18:30N 37°03' E 012°48'5 9.4
2017-Oct-16 18:00N 37°02' E 012°54'5 9.8
2017-Oct-16 17:30N 37°00' E 012°60'5 9.8
2017-Oct-16 17:00N 36°59' E 013°06'5 9.8
2017-Oct-16 16:30N 36°58' E 013°12'5 9.7
2017-Oct-16 16:00N 36°56' E 013°18'6 9.7
2017-Oct-16 15:25N 36°55' E 013°24'4 9.7
2017-Oct-16 15:00N 36°53' E 013°29'10 9.7
2017-Oct-16 14:00N 36°50' E 013°41'5 9.7
2017-Oct-16 13:30N 36°49' E 013°46'5 9.7
2017-Oct-16 13:00N 36°48' E 013°52'5 9.5
2017-Oct-16 12:30N 36°46' E 013°58'5 9.7
2017-Oct-16 12:00N 36°45' E 014°04'5 9.7
2017-Oct-16 11:30N 36°43' E 014°09'5 9.5
2017-Oct-16 11:00N 36°42' E 014°15'510.1
2017-Oct-16 10:30N 36°41' E 014°21'510.2
2017-Oct-16 10:00N 36°39' E 014°27'610.5
2017-Oct-16 09:24N 36°37' E 014°35'510.5
2017-Oct-16 08:56N 36°36' E 014°41'  
2017-Oct-08 07:31N 40°49' E 028°49'311.0
2017-Oct-08 07:13N 40°51' E 028°53'210.8
2017-Oct-08 07:00N 40°52' E 028°55'  
Track history (hours):
 
Tides and Currents Weather Stations Pressure Air Temp Water Temp Dewpoint Dewpoint Depression Visibility Wind Speed Wind Dir Waves Ship Positions

Helsinki

Last reported at 2017-Oct-18 04:32 UTC. Time now 2017-Oct-19 18:40 UTC.
Position N 37°20' E 005°40'.

MMSI: 304010778.

Date/timePositionNaut miles runAvg speedWind from/ knotsBaromVisibWave heightAir tempDewpointWater temp
2017-Oct-18 04:32N 37°20' E 005°40'410.1
2017-Oct-18 04:09N 37°20' E 005°44'210.3
2017-Oct-18 03:58N 37°20' E 005°47'9310.3
2017-Oct-17 18:52N 37°32' E 007°43'410.9
2017-Oct-17 18:30N 37°32' E 007°48'20710.0
2017-Oct-16 21:53N 37°12' E 012°08'710.1
2017-Oct-16 21:13N 37°10' E 012°16'1010.0
2017-Oct-16 20:14N 37°08' E 012°28'310.0
2017-Oct-16 19:54N 37°06' E 012°32'4 9.8
2017-Oct-16 19:30N 37°05' E 012°36'5 9.8
2017-Oct-16 19:00N 37°03' E 012°42'5 9.9
2017-Oct-16 18:30N 37°03' E 012°48'5 9.4
2017-Oct-16 18:00N 37°02' E 012°54'5 9.8
2017-Oct-16 17:30N 37°00' E 012°60'5 9.8
2017-Oct-16 17:00N 36°59' E 013°06'5 9.8
2017-Oct-16 16:30N 36°58' E 013°12'5 9.7
2017-Oct-16 16:00N 36°56' E 013°18'6 9.7
2017-Oct-16 15:25N 36°55' E 013°24'4 9.7
2017-Oct-16 15:00N 36°53' E 013°29'10 9.7
2017-Oct-16 14:00N 36°50' E 013°41'5 9.7
2017-Oct-16 13:30N 36°49' E 013°46'5 9.7
2017-Oct-16 13:00N 36°48' E 013°52'5 9.5
2017-Oct-16 12:30N 36°46' E 013°58'5 9.7
2017-Oct-16 12:00N 36°45' E 014°04'5 9.7
2017-Oct-16 11:30N 36°43' E 014°09'5 9.5
2017-Oct-16 11:00N 36°42' E 014°15'510.1
2017-Oct-16 10:30N 36°41' E 014°21'510.2
2017-Oct-16 10:00N 36°39' E 014°27'610.5
2017-Oct-16 09:24N 36°37' E 014°35'510.5
2017-Oct-16 08:56N 36°36' E 014°41'  
2017-Oct-08 07:31N 40°49' E 028°49'311.0
2017-Oct-08 07:13N 40°51' E 028°53'210.8
2017-Oct-08 07:00N 40°52' E 028°55'  

Dump ship's entire track history